sensor_id;sensor_type;location;lat;lon;timestamp;temperature;humidity
27667;DHT22;15074;50.940;5.282;2023-06-24T00:01:17;18.60;99.90
27667;DHT22;15074;50.940;5.282;2023-06-24T00:03:43;18.60;99.90
27667;DHT22;15074;50.940;5.282;2023-06-24T00:06:12;18.50;99.90
27667;DHT22;15074;50.940;5.282;2023-06-24T00:08:44;18.30;99.90
27667;DHT22;15074;50.940;5.282;2023-06-24T00:11:10;18.30;99.90
27667;DHT22;15074;50.940;5.282;2023-06-24T00:13:36;18.30;99.90
27667;DHT22;15074;50.940;5.282;2023-06-24T00:16:02;18.20;99.90
27667;DHT22;15074;50.940;5.282;2023-06-24T00:18:28;18.20;99.90
27667;DHT22;15074;50.940;5.282;2023-06-24T00:20:56;18.10;99.90
27667;DHT22;15074;50.940;5.282;2023-06-24T00:23:23;18.10;99.90
27667;DHT22;15074;50.940;5.282;2023-06-24T00:25:52;18.00;99.90
27667;DHT22;15074;50.940;5.282;2023-06-24T00:28:18;18.10;99.90
27667;DHT22;15074;50.940;5.282;2023-06-24T00:30:44;18.20;99.90
27667;DHT22;15074;50.940;5.282;2023-06-24T00:33:09;18.30;99.90
27667;DHT22;15074;50.940;5.282;2023-06-24T00:35:37;18.30;99.90
27667;DHT22;15074;50.940;5.282;2023-06-24T00:38:03;18.20;99.90
27667;DHT22;15074;50.940;5.282;2023-06-24T00:40:29;18.20;99.90
27667;DHT22;15074;50.940;5.282;2023-06-24T00:42:55;18.10;99.90
27667;DHT22;15074;50.940;5.282;2023-06-24T00:45:22;18.00;99.90
27667;DHT22;15074;50.940;5.282;2023-06-24T00:47:48;18.10;99.90
27667;DHT22;15074;50.940;5.282;2023-06-24T00:50:15;18.20;99.90
27667;DHT22;15074;50.940;5.282;2023-06-24T00:52:41;18.20;99.90
27667;DHT22;15074;50.940;5.282;2023-06-24T00:55:12;18.40;99.90
27667;DHT22;15074;50.940;5.282;2023-06-24T00:57:43;18.40;99.90
27667;DHT22;15074;50.940;5.282;2023-06-24T01:00:10;18.40;99.90
27667;DHT22;15074;50.940;5.282;2023-06-24T01:02:40;18.30;99.90
27667;DHT22;15074;50.940;5.282;2023-06-24T01:05:08;18.20;99.90
27667;DHT22;15074;50.940;5.282;2023-06-24T01:07:37;18.10;99.90
27667;DHT22;15074;50.940;5.282;2023-06-24T01:10:04;18.10;99.90
27667;DHT22;15074;50.940;5.282;2023-06-24T01:12:38;18.00;99.90
27667;DHT22;15074;50.940;5.282;2023-06-24T01:15:08;18.00;99.90
27667;DHT22;15074;50.940;5.282;2023-06-24T01:20:55;18.00;99.90
27667;DHT22;15074;50.940;5.282;2023-06-24T01:34:56;17.70;99.90
27667;DHT22;15074;50.940;5.282;2023-06-24T01:37:30;17.60;99.90
27667;DHT22;15074;50.940;5.282;2023-06-24T01:42:39;17.50;99.90
27667;DHT22;15074;50.940;5.282;2023-06-24T01:45:07;17.50;99.90
27667;DHT22;15074;50.940;5.282;2023-06-24T01:47:35;17.50;99.90
27667;DHT22;15074;50.940;5.282;2023-06-24T01:50:03;17.40;99.90
27667;DHT22;15074;50.940;5.282;2023-06-24T01:52:30;17.30;99.90
27667;DHT22;15074;50.940;5.282;2023-06-24T01:54:58;17.30;99.90
27667;DHT22;15074;50.940;5.282;2023-06-24T01:57:25;17.20;99.90
27667;DHT22;15074;50.940;5.282;2023-06-24T01:59:53;17.20;99.90
27667;DHT22;15074;50.940;5.282;2023-06-24T02:02:20;17.20;99.90
27667;DHT22;15074;50.940;5.282;2023-06-24T02:04:48;17.20;99.90
27667;DHT22;15074;50.940;5.282;2023-06-24T02:07:16;17.10;99.90
27667;DHT22;15074;50.940;5.282;2023-06-24T02:09:43;17.10;99.90
27667;DHT22;15074;50.940;5.282;2023-06-24T02:12:09;16.90;99.90
27667;DHT22;15074;50.940;5.282;2023-06-24T02:14:36;16.80;99.90
27667;DHT22;15074;50.940;5.282;2023-06-24T02:17:04;16.80;99.90
27667;DHT22;15074;50.940;5.282;2023-06-24T02:19:30;16.70;99.90
27667;DHT22;15074;50.940;5.282;2023-06-24T02:21:58;16.70;99.90
27667;DHT22;15074;50.940;5.282;2023-06-24T02:24:26;16.70;99.90
27667;DHT22;15074;50.940;5.282;2023-06-24T02:26:53;16.60;99.90
27667;DHT22;15074;50.940;5.282;2023-06-24T02:29:20;16.70;99.90
27667;DHT22;15074;50.940;5.282;2023-06-24T02:31:47;16.70;99.90
27667;DHT22;15074;50.940;5.282;2023-06-24T02:34:13;16.80;99.90
27667;DHT22;15074;50.940;5.282;2023-06-24T02:36:39;16.70;99.90
27667;DHT22;15074;50.940;5.282;2023-06-24T02:39:06;16.70;99.90
27667;DHT22;15074;50.940;5.282;2023-06-24T02:41:32;16.60;99.90
27667;DHT22;15074;50.940;5.282;2023-06-24T02:43:58;16.50;99.90
27667;DHT22;15074;50.940;5.282;2023-06-24T02:46:25;16.40;99.90
27667;DHT22;15074;50.940;5.282;2023-06-24T02:48:51;16.20;99.90
27667;DHT22;15074;50.940;5.282;2023-06-24T02:51:18;16.20;99.90
27667;DHT22;15074;50.940;5.282;2023-06-24T02:53:45;16.10;99.90
27667;DHT22;15074;50.940;5.282;2023-06-24T02:56:12;16.10;99.90
27667;DHT22;15074;50.940;5.282;2023-06-24T02:58:39;16.20;99.90
27667;DHT22;15074;50.940;5.282;2023-06-24T03:01:05;16.20;99.90
27667;DHT22;15074;50.940;5.282;2023-06-24T03:03:35;16.10;99.90
27667;DHT22;15074;50.940;5.282;2023-06-24T03:06:01;16.10;99.90
27667;DHT22;15074;50.940;5.282;2023-06-24T03:08:29;15.90;99.90
27667;DHT22;15074;50.940;5.282;2023-06-24T03:10:55;15.90;99.90
27667;DHT22;15074;50.940;5.282;2023-06-24T03:13:22;15.80;99.90
27667;DHT22;15074;50.940;5.282;2023-06-24T03:15:48;15.80;99.90
27667;DHT22;15074;50.940;5.282;2023-06-24T03:18:15;15.80;99.90
27667;DHT22;15074;50.940;5.282;2023-06-24T03:20:41;15.70;99.90
27667;DHT22;15074;50.940;5.282;2023-06-24T03:23:06;15.80;99.90
27667;DHT22;15074;50.940;5.282;2023-06-24T03:25:33;15.70;99.90
27667;DHT22;15074;50.940;5.282;2023-06-24T03:27:59;15.80;99.90
27667;DHT22;15074;50.940;5.282;2023-06-24T03:30:29;15.70;99.90
27667;DHT22;15074;50.940;5.282;2023-06-24T03:32:55;15.70;99.90
27667;DHT22;15074;50.940;5.282;2023-06-24T03:35:23;15.70;99.90
27667;DHT22;15074;50.940;5.282;2023-06-24T03:37:49;15.70;99.90
27667;DHT22;15074;50.940;5.282;2023-06-24T03:40:15;15.70;99.90
27667;DHT22;15074;50.940;5.282;2023-06-24T03:42:41;15.70;99.90
27667;DHT22;15074;50.940;5.282;2023-06-24T03:45:07;15.70;99.90
27667;DHT22;15074;50.940;5.282;2023-06-24T03:47:32;15.70;99.90
27667;DHT22;15074;50.940;5.282;2023-06-24T03:49:58;15.70;99.90
27667;DHT22;15074;50.940;5.282;2023-06-24T03:52:24;15.70;99.90
27667;DHT22;15074;50.940;5.282;2023-06-24T03:54:50;15.80;99.90
27667;DHT22;15074;50.940;5.282;2023-06-24T03:57:16;15.80;99.90
27667;DHT22;15074;50.940;5.282;2023-06-24T03:59:42;15.80;99.90
27667;DHT22;15074;50.940;5.282;2023-06-24T04:02:08;15.80;99.90
27667;DHT22;15074;50.940;5.282;2023-06-24T04:04:34;15.90;99.90
27667;DHT22;15074;50.940;5.282;2023-06-24T04:07:00;15.90;99.90
27667;DHT22;15074;50.940;5.282;2023-06-24T04:09:26;15.90;99.90
27667;DHT22;15074;50.940;5.282;2023-06-24T04:11:51;15.90;99.90
27667;DHT22;15074;50.940;5.282;2023-06-24T04:14:17;16.00;99.90
27667;DHT22;15074;50.940;5.282;2023-06-24T04:16:42;16.00;99.90
27667;DHT22;15074;50.940;5.282;2023-06-24T04:19:08;16.00;99.90
27667;DHT22;15074;50.940;5.282;2023-06-24T04:21:34;16.00;99.90
27667;DHT22;15074;50.940;5.282;2023-06-24T04:23:59;16.00;99.90
27667;DHT22;15074;50.940;5.282;2023-06-24T04:26:25;16.10;99.90
27667;DHT22;15074;50.940;5.282;2023-06-24T04:28:51;16.10;99.90
27667;DHT22;15074;50.940;5.282;2023-06-24T04:31:16;16.10;99.90
27667;DHT22;15074;50.940;5.282;2023-06-24T04:33:42;16.10;99.90
27667;DHT22;15074;50.940;5.282;2023-06-24T04:36:08;16.20;99.90
27667;DHT22;15074;50.940;5.282;2023-06-24T04:38:33;16.20;99.90
27667;DHT22;15074;50.940;5.282;2023-06-24T04:40:59;16.40;99.90
27667;DHT22;15074;50.940;5.282;2023-06-24T04:43:26;16.60;99.90
27667;DHT22;15074;50.940;5.282;2023-06-24T04:45:53;17.00;99.90
27667;DHT22;15074;50.940;5.282;2023-06-24T04:48:22;17.70;99.90
27667;DHT22;15074;50.940;5.282;2023-06-24T04:50:48;18.30;99.90
27667;DHT22;15074;50.940;5.282;2023-06-24T04:53:13;18.80;99.90
27667;DHT22;15074;50.940;5.282;2023-06-24T04:55:39;19.30;99.90
27667;DHT22;15074;50.940;5.282;2023-06-24T04:58:05;20.10;99.90
27667;DHT22;15074;50.940;5.282;2023-06-24T05:00:31;20.90;99.90
27667;DHT22;15074;50.940;5.282;2023-06-24T05:02:56;21.40;99.90
27667;DHT22;15074;50.940;5.282;2023-06-24T05:05:22;21.70;99.90
27667;DHT22;15074;50.940;5.282;2023-06-24T05:07:48;21.80;99.90
27667;DHT22;15074;50.940;5.282;2023-06-24T05:10:13;21.60;99.90
27667;DHT22;15074;50.940;5.282;2023-06-24T05:12:39;21.60;99.90
27667;DHT22;15074;50.940;5.282;2023-06-24T05:15:05;21.60;99.90
27667;DHT22;15074;50.940;5.282;2023-06-24T05:17:31;21.40;99.90
27667;DHT22;15074;50.940;5.282;2023-06-24T05:19:57;21.10;99.90
27667;DHT22;15074;50.940;5.282;2023-06-24T05:22:23;21.70;99.90
27667;DHT22;15074;50.940;5.282;2023-06-24T05:24:48;21.90;99.90
27667;DHT22;15074;50.940;5.282;2023-06-24T05:27:14;22.40;99.90
27667;DHT22;15074;50.940;5.282;2023-06-24T05:29:40;22.60;99.90
27667;DHT22;15074;50.940;5.282;2023-06-24T05:32:05;22.60;99.90
27667;DHT22;15074;50.940;5.282;2023-06-24T05:34:31;23.10;99.90
27667;DHT22;15074;50.940;5.282;2023-06-24T05:36:58;23.00;99.90
27667;DHT22;15074;50.940;5.282;2023-06-24T05:39:24;23.30;99.90
27667;DHT22;15074;50.940;5.282;2023-06-24T05:41:49;23.90;99.90
27667;DHT22;15074;50.940;5.282;2023-06-24T05:44:15;24.50;99.90
27667;DHT22;15074;50.940;5.282;2023-06-24T05:46:43;24.40;99.90
27667;DHT22;15074;50.940;5.282;2023-06-24T05:49:09;24.90;99.90
27667;DHT22;15074;50.940;5.282;2023-06-24T05:51:35;25.00;99.90
27667;DHT22;15074;50.940;5.282;2023-06-24T05:54:00;25.20;99.90
27667;DHT22;15074;50.940;5.282;2023-06-24T05:56:26;24.70;99.90
27667;DHT22;15074;50.940;5.282;2023-06-24T05:58:52;24.90;99.90
27667;DHT22;15074;50.940;5.282;2023-06-24T06:01:17;24.70;99.90
27667;DHT22;15074;50.940;5.282;2023-06-24T06:03:43;25.20;99.90
27667;DHT22;15074;50.940;5.282;2023-06-24T06:06:09;25.80;99.90
27667;DHT22;15074;50.940;5.282;2023-06-24T06:08:34;26.60;99.90
27667;DHT22;15074;50.940;5.282;2023-06-24T06:11:00;27.10;99.90
27667;DHT22;15074;50.940;5.282;2023-06-24T06:13:29;27.70;99.90
27667;DHT22;15074;50.940;5.282;2023-06-24T06:15:56;28.30;99.90
27667;DHT22;15074;50.940;5.282;2023-06-24T06:18:21;28.30;99.90
27667;DHT22;15074;50.940;5.282;2023-06-24T06:20:47;28.00;99.90
27667;DHT22;15074;50.940;5.282;2023-06-24T06:23:15;28.30;99.90
27667;DHT22;15074;50.940;5.282;2023-06-24T06:25:40;28.30;99.90
27667;DHT22;15074;50.940;5.282;2023-06-24T06:28:06;28.80;99.90
27667;DHT22;15074;50.940;5.282;2023-06-24T06:30:32;28.60;99.90
27667;DHT22;15074;50.940;5.282;2023-06-24T06:32:57;28.80;99.90
27667;DHT22;15074;50.940;5.282;2023-06-24T06:35:23;28.70;99.90
27667;DHT22;15074;50.940;5.282;2023-06-24T06:37:49;28.40;99.90
27667;DHT22;15074;50.940;5.282;2023-06-24T06:40:21;28.20;99.90
27667;DHT22;15074;50.940;5.282;2023-06-24T06:42:47;28.20;99.90
27667;DHT22;15074;50.940;5.282;2023-06-24T06:45:13;28.10;99.90
27667;DHT22;15074;50.940;5.282;2023-06-24T06:47:39;28.30;99.90
27667;DHT22;15074;50.940;5.282;2023-06-24T06:50:05;28.80;99.90
27667;DHT22;15074;50.940;5.282;2023-06-24T06:52:31;28.20;99.90
27667;DHT22;15074;50.940;5.282;2023-06-24T06:54:56;27.90;99.90
27667;DHT22;15074;50.940;5.282;2023-06-24T06:57:22;27.50;99.90
27667;DHT22;15074;50.940;5.282;2023-06-24T06:59:48;27.70;99.90
27667;DHT22;15074;50.940;5.282;2023-06-24T07:02:16;27.50;99.90
27667;DHT22;15074;50.940;5.282;2023-06-24T07:04:42;27.50;99.90
27667;DHT22;15074;50.940;5.282;2023-06-24T07:07:08;28.30;99.90
27667;DHT22;15074;50.940;5.282;2023-06-24T07:09:34;29.00;99.90
27667;DHT22;15074;50.940;5.282;2023-06-24T07:11:59;29.90;99.90
27667;DHT22;15074;50.940;5.282;2023-06-24T07:14:25;29.70;99.90
27667;DHT22;15074;50.940;5.282;2023-06-24T07:16:51;29.20;99.90
27667;DHT22;15074;50.940;5.282;2023-06-24T07:19:16;29.80;99.90
27667;DHT22;15074;50.940;5.282;2023-06-24T07:21:42;29.70;99.90
27667;DHT22;15074;50.940;5.282;2023-06-24T07:24:08;29.80;99.90
27667;DHT22;15074;50.940;5.282;2023-06-24T07:26:33;30.30;98.90
27667;DHT22;15074;50.940;5.282;2023-06-24T07:28:59;30.90;97.80
27667;DHT22;15074;50.940;5.282;2023-06-24T07:31:25;30.60;97.70
27667;DHT22;15074;50.940;5.282;2023-06-24T07:33:51;30.20;98.40
27667;DHT22;15074;50.940;5.282;2023-06-24T07:36:17;30.00;97.40
27667;DHT22;15074;50.940;5.282;2023-06-24T07:38:42;30.70;97.00
27667;DHT22;15074;50.940;5.282;2023-06-24T07:41:08;31.70;95.40
27667;DHT22;15074;50.940;5.282;2023-06-24T07:43:34;32.00;95.70
27667;DHT22;15074;50.940;5.282;2023-06-24T07:45:59;31.60;95.20
27667;DHT22;15074;50.940;5.282;2023-06-24T07:48:25;32.20;94.80
27667;DHT22;15074;50.940;5.282;2023-06-24T07:50:51;33.50;92.20
27667;DHT22;15074;50.940;5.282;2023-06-24T07:53:16;33.90;91.10
27667;DHT22;15074;50.940;5.282;2023-06-24T07:55:42;33.50;90.50
27667;DHT22;15074;50.940;5.282;2023-06-24T07:58:07;33.70;89.90
27667;DHT22;15074;50.940;5.282;2023-06-24T08:00:33;32.80;89.70
27667;DHT22;15074;50.940;5.282;2023-06-24T08:02:59;31.20;90.90
27667;DHT22;15074;50.940;5.282;2023-06-24T08:05:26;30.40;92.70
27667;DHT22;15074;50.940;5.282;2023-06-24T08:07:52;31.20;92.50
27667;DHT22;15074;50.940;5.282;2023-06-24T08:10:18;31.50;91.80
27667;DHT22;15074;50.940;5.282;2023-06-24T08:12:43;32.10;90.60
27667;DHT22;15074;50.940;5.282;2023-06-24T08:15:09;32.40;89.50
27667;DHT22;15074;50.940;5.282;2023-06-24T08:17:35;33.00;87.80
27667;DHT22;15074;50.940;5.282;2023-06-24T08:20:02;33.20;83.80
27667;DHT22;15074;50.940;5.282;2023-06-24T08:22:29;32.80;83.90
27667;DHT22;15074;50.940;5.282;2023-06-24T08:24:55;32.70;81.70
27667;DHT22;15074;50.940;5.282;2023-06-24T08:27:20;32.40;81.10
27667;DHT22;15074;50.940;5.282;2023-06-24T08:29:46;30.80;82.40
27667;DHT22;15074;50.940;5.282;2023-06-24T08:32:12;31.60;84.20
27667;DHT22;15074;50.940;5.282;2023-06-24T08:34:38;33.00;80.00
27667;DHT22;15074;50.940;5.282;2023-06-24T08:37:04;32.40;80.40
27667;DHT22;15074;50.940;5.282;2023-06-24T08:39:29;33.40;79.40
27667;DHT22;15074;50.940;5.282;2023-06-24T08:41:55;31.40;80.40
27667;DHT22;15074;50.940;5.282;2023-06-24T08:44:21;31.80;83.50
27667;DHT22;15074;50.940;5.282;2023-06-24T08:46:47;31.80;82.20
27667;DHT22;15074;50.940;5.282;2023-06-24T08:52:04;32.60;80.90
27667;DHT22;15074;50.940;5.282;2023-06-24T08:54:35;33.20;79.20
27667;DHT22;15074;50.940;5.282;2023-06-24T08:57:04;34.80;76.30
27667;DHT22;15074;50.940;5.282;2023-06-24T08:59:37;35.60;74.20
27667;DHT22;15074;50.940;5.282;2023-06-24T09:02:03;33.20;71.70
27667;DHT22;15074;50.940;5.282;2023-06-24T09:04:29;32.40;75.10
27667;DHT22;15074;50.940;5.282;2023-06-24T09:06:54;33.00;74.70
27667;DHT22;15074;50.940;5.282;2023-06-24T09:09:21;32.10;74.50
27667;DHT22;15074;50.940;5.282;2023-06-24T09:11:58;31.70;74.90
27667;DHT22;15074;50.940;5.282;2023-06-24T09:14:25;31.70;74.20
27667;DHT22;15074;50.940;5.282;2023-06-24T09:16:58;32.10;76.00
27667;DHT22;15074;50.940;5.282;2023-06-24T09:19:27;32.90;72.70
27667;DHT22;15074;50.940;5.282;2023-06-24T09:22:06;33.40;70.20
27667;DHT22;15074;50.940;5.282;2023-06-24T09:24:36;33.80;70.50
27667;DHT22;15074;50.940;5.282;2023-06-24T09:27:03;33.50;69.30
27667;DHT22;15074;50.940;5.282;2023-06-24T09:29:31;33.20;70.20
27667;DHT22;15074;50.940;5.282;2023-06-24T09:31:57;34.30;72.30
27667;DHT22;15074;50.940;5.282;2023-06-24T09:34:28;34.20;69.50
27667;DHT22;15074;50.940;5.282;2023-06-24T09:36:58;33.30;71.00
27667;DHT22;15074;50.940;5.282;2023-06-24T09:39:25;34.60;70.10
27667;DHT22;15074;50.940;5.282;2023-06-24T09:41:59;34.70;69.40
27667;DHT22;15074;50.940;5.282;2023-06-24T09:44:28;34.00;69.10
27667;DHT22;15074;50.940;5.282;2023-06-24T09:46:55;33.80;69.00
27667;DHT22;15074;50.940;5.282;2023-06-24T09:49:24;32.70;70.80
27667;DHT22;15074;50.940;5.282;2023-06-24T09:51:55;31.80;70.30
27667;DHT22;15074;50.940;5.282;2023-06-24T09:54:21;32.00;72.90
27667;DHT22;15074;50.940;5.282;2023-06-24T09:56:49;31.50;71.40
27667;DHT22;15074;50.940;5.282;2023-06-24T09:59:17;31.40;72.40
27667;DHT22;15074;50.940;5.282;2023-06-24T10:01:52;32.20;70.70
27667;DHT22;15074;50.940;5.282;2023-06-24T10:04:20;32.50;71.70
27667;DHT22;15074;50.940;5.282;2023-06-24T10:06:47;33.50;70.60
27667;DHT22;15074;50.940;5.282;2023-06-24T10:09:13;34.80;69.00
27667;DHT22;15074;50.940;5.282;2023-06-24T10:11:42;35.00;66.70
27667;DHT22;15074;50.940;5.282;2023-06-24T10:14:08;35.30;69.70
27667;DHT22;15074;50.940;5.282;2023-06-24T10:16:34;35.90;67.10
27667;DHT22;15074;50.940;5.282;2023-06-24T10:19:02;37.40;65.10
27667;DHT22;15074;50.940;5.282;2023-06-24T10:21:53;37.90;64.30
27667;DHT22;15074;50.940;5.282;2023-06-24T10:24:32;37.00;61.00
27667;DHT22;15074;50.940;5.282;2023-06-24T10:27:09;34.70;60.60
27667;DHT22;15074;50.940;5.282;2023-06-24T10:29:39;34.50;64.70
27667;DHT22;15074;50.940;5.282;2023-06-24T10:32:05;35.40;63.70
27667;DHT22;15074;50.940;5.282;2023-06-24T10:37:13;35.40;64.10
27667;DHT22;15074;50.940;5.282;2023-06-24T10:42:43;36.70;60.80
27667;DHT22;15074;50.940;5.282;2023-06-24T10:47:38;38.00;58.30
27667;DHT22;15074;50.940;5.282;2023-06-24T10:50:05;36.50;60.80
27667;DHT22;15074;50.940;5.282;2023-06-24T10:52:31;36.00;61.20
27667;DHT22;15074;50.940;5.282;2023-06-24T10:54:58;34.80;59.30
27667;DHT22;15074;50.940;5.282;2023-06-24T10:57:26;34.90;60.10
27667;DHT22;15074;50.940;5.282;2023-06-24T10:59:53;34.40;62.30
27667;DHT22;15074;50.940;5.282;2023-06-24T11:02:22;34.50;61.70
27667;DHT22;15074;50.940;5.282;2023-06-24T11:04:48;33.90;63.40
27667;DHT22;15074;50.940;5.282;2023-06-24T11:07:16;33.30;62.40
27667;DHT22;15074;50.940;5.282;2023-06-24T11:09:42;33.80;62.90
27667;DHT22;15074;50.940;5.282;2023-06-24T11:12:13;34.60;64.60
27667;DHT22;15074;50.940;5.282;2023-06-24T11:14:39;34.50;59.10
27667;DHT22;15074;50.940;5.282;2023-06-24T11:17:06;35.20;59.10
27667;DHT22;15074;50.940;5.282;2023-06-24T11:19:31;36.30;58.80
27667;DHT22;15074;50.940;5.282;2023-06-24T11:22:01;36.10;58.50
27667;DHT22;15074;50.940;5.282;2023-06-24T11:24:28;36.50;59.70
27667;DHT22;15074;50.940;5.282;2023-06-24T11:26:54;36.90;59.40
27667;DHT22;15074;50.940;5.282;2023-06-24T11:29:20;37.00;60.00
27667;DHT22;15074;50.940;5.282;2023-06-24T11:31:46;37.30;58.50
27667;DHT22;15074;50.940;5.282;2023-06-24T11:34:11;38.00;57.40
27667;DHT22;15074;50.940;5.282;2023-06-24T11:36:37;37.90;57.80
27667;DHT22;15074;50.940;5.282;2023-06-24T11:39:03;37.60;58.00
27667;DHT22;15074;50.940;5.282;2023-06-24T11:41:29;37.40;56.70
27667;DHT22;15074;50.940;5.282;2023-06-24T11:43:57;38.20;55.30
27667;DHT22;15074;50.940;5.282;2023-06-24T11:46:27;37.80;54.60
27667;DHT22;15074;50.940;5.282;2023-06-24T11:49:05;37.40;55.60
27667;DHT22;15074;50.940;5.282;2023-06-24T11:51:32;36.10;55.60
27667;DHT22;15074;50.940;5.282;2023-06-24T11:54:05;33.20;61.10
27667;DHT22;15074;50.940;5.282;2023-06-24T11:56:38;34.70;62.80
27667;DHT22;15074;50.940;5.282;2023-06-24T11:59:15;35.10;58.80
27667;DHT22;15074;50.940;5.282;2023-06-24T12:01:58;32.50;60.60
27667;DHT22;15074;50.940;5.282;2023-06-24T12:04:32;31.80;63.20
27667;DHT22;15074;50.940;5.282;2023-06-24T12:06:58;31.50;64.20
27667;DHT22;15074;50.940;5.282;2023-06-24T12:09:24;31.60;64.40
27667;DHT22;15074;50.940;5.282;2023-06-24T12:11:52;31.30;66.30
27667;DHT22;15074;50.940;5.282;2023-06-24T12:14:18;31.60;65.50
27667;DHT22;15074;50.940;5.282;2023-06-24T12:16:43;33.40;64.60
27667;DHT22;15074;50.940;5.282;2023-06-24T12:19:09;34.80;63.00
27667;DHT22;15074;50.940;5.282;2023-06-24T12:21:35;35.20;59.10
27667;DHT22;15074;50.940;5.282;2023-06-24T12:24:04;33.60;62.50
27667;DHT22;15074;50.940;5.282;2023-06-24T12:26:31;32.90;62.50
27667;DHT22;15074;50.940;5.282;2023-06-24T12:28:57;32.10;65.90
27667;DHT22;15074;50.940;5.282;2023-06-24T12:31:23;32.10;63.00
27667;DHT22;15074;50.940;5.282;2023-06-24T12:33:51;32.00;63.20
27667;DHT22;15074;50.940;5.282;2023-06-24T12:36:17;32.50;64.30
27667;DHT22;15074;50.940;5.282;2023-06-24T12:38:43;33.20;64.10
27667;DHT22;15074;50.940;5.282;2023-06-24T12:41:09;33.90;63.40
27667;DHT22;15074;50.940;5.282;2023-06-24T12:43:34;35.00;61.00
27667;DHT22;15074;50.940;5.282;2023-06-24T12:46:00;35.20;59.20
27667;DHT22;15074;50.940;5.282;2023-06-24T12:48:26;35.30;58.40
27667;DHT22;15074;50.940;5.282;2023-06-24T12:50:52;36.10;58.80
27667;DHT22;15074;50.940;5.282;2023-06-24T12:53:21;34.90;58.00
27667;DHT22;15074;50.940;5.282;2023-06-24T12:55:47;33.50;58.30
27667;DHT22;15074;50.940;5.282;2023-06-24T12:58:14;34.00;58.80
27667;DHT22;15074;50.940;5.282;2023-06-24T13:00:43;34.90;58.40
27667;DHT22;15074;50.940;5.282;2023-06-24T13:03:09;35.60;56.50
27667;DHT22;15074;50.940;5.282;2023-06-24T13:05:35;36.20;54.60
27667;DHT22;15074;50.940;5.282;2023-06-24T13:08:01;35.80;55.00
27667;DHT22;15074;50.940;5.282;2023-06-24T13:10:26;36.30;55.90
27667;DHT22;15074;50.940;5.282;2023-06-24T13:12:52;36.20;56.20
27667;DHT22;15074;50.940;5.282;2023-06-24T13:15:18;35.50;55.60
27667;DHT22;15074;50.940;5.282;2023-06-24T13:17:43;34.80;57.20
27667;DHT22;15074;50.940;5.282;2023-06-24T13:20:10;34.60;58.50
27667;DHT22;15074;50.940;5.282;2023-06-24T13:22:35;34.60;57.90
27667;DHT22;15074;50.940;5.282;2023-06-24T13:25:01;34.10;58.60
27667;DHT22;15074;50.940;5.282;2023-06-24T13:27:27;33.90;58.10
27667;DHT22;15074;50.940;5.282;2023-06-24T13:29:52;33.30;55.60
27667;DHT22;15074;50.940;5.282;2023-06-24T13:32:18;32.80;55.50
27667;DHT22;15074;50.940;5.282;2023-06-24T13:34:45;33.10;56.90
27667;DHT22;15074;50.940;5.282;2023-06-24T13:37:10;33.90;57.00
27667;DHT22;15074;50.940;5.282;2023-06-24T13:39:36;33.20;56.40
27667;DHT22;15074;50.940;5.282;2023-06-24T13:42:02;31.90;57.70
27667;DHT22;15074;50.940;5.282;2023-06-24T13:44:27;32.80;57.00
27667;DHT22;15074;50.940;5.282;2023-06-24T13:46:54;33.10;57.90
27667;DHT22;15074;50.940;5.282;2023-06-24T13:49:20;33.50;57.40
27667;DHT22;15074;50.940;5.282;2023-06-24T13:51:45;34.40;55.90
27667;DHT22;15074;50.940;5.282;2023-06-24T13:54:12;35.50;54.10
27667;DHT22;15074;50.940;5.282;2023-06-24T13:56:37;35.30;53.30
27667;DHT22;15074;50.940;5.282;2023-06-24T13:59:03;34.30;55.00
27667;DHT22;15074;50.940;5.282;2023-06-24T14:01:29;32.80;56.30
27667;DHT22;15074;50.940;5.282;2023-06-24T14:03:55;32.80;56.40
27667;DHT22;15074;50.940;5.282;2023-06-24T14:06:22;33.00;56.00
27667;DHT22;15074;50.940;5.282;2023-06-24T14:08:49;32.80;55.00
27667;DHT22;15074;50.940;5.282;2023-06-24T14:11:16;32.20;55.10
27667;DHT22;15074;50.940;5.282;2023-06-24T14:13:42;31.90;57.60
27667;DHT22;15074;50.940;5.282;2023-06-24T14:16:08;32.00;57.40
27667;DHT22;15074;50.940;5.282;2023-06-24T14:18:34;32.10;57.50
27667;DHT22;15074;50.940;5.282;2023-06-24T14:21:01;30.60;57.50
27667;DHT22;15074;50.940;5.282;2023-06-24T14:23:28;30.70;58.40
27667;DHT22;15074;50.940;5.282;2023-06-24T14:25:54;32.10;59.30
27667;DHT22;15074;50.940;5.282;2023-06-24T14:28:20;32.70;57.40
27667;DHT22;15074;50.940;5.282;2023-06-24T14:30:46;32.60;56.10
27667;DHT22;15074;50.940;5.282;2023-06-24T14:33:12;33.30;56.60
27667;DHT22;15074;50.940;5.282;2023-06-24T14:35:38;34.10;54.90
27667;DHT22;15074;50.940;5.282;2023-06-24T14:38:04;34.50;55.40
27667;DHT22;15074;50.940;5.282;2023-06-24T14:40:31;34.00;55.60
27667;DHT22;15074;50.940;5.282;2023-06-24T14:42:58;34.10;56.30
27667;DHT22;15074;50.940;5.282;2023-06-24T14:45:24;32.90;57.20
27667;DHT22;15074;50.940;5.282;2023-06-24T14:47:49;32.60;58.80
27667;DHT22;15074;50.940;5.282;2023-06-24T14:50:15;32.00;57.70
27667;DHT22;15074;50.940;5.282;2023-06-24T14:52:41;32.20;57.10
27667;DHT22;15074;50.940;5.282;2023-06-24T14:55:07;31.70;58.30
27667;DHT22;15074;50.940;5.282;2023-06-24T14:57:33;31.30;60.90
27667;DHT22;15074;50.940;5.282;2023-06-24T14:59:59;31.20;61.10
27667;DHT22;15074;50.940;5.282;2023-06-24T15:02:24;31.60;63.90
27667;DHT22;15074;50.940;5.282;2023-06-24T15:04:51;30.90;60.90
27667;DHT22;15074;50.940;5.282;2023-06-24T15:07:17;30.40;60.80
27667;DHT22;15074;50.940;5.282;2023-06-24T15:09:43;30.70;61.20
27667;DHT22;15074;50.940;5.282;2023-06-24T15:12:09;30.90;61.30
27667;DHT22;15074;50.940;5.282;2023-06-24T15:14:35;30.40;60.40
27667;DHT22;15074;50.940;5.282;2023-06-24T15:17:01;30.40;61.40
27667;DHT22;15074;50.940;5.282;2023-06-24T15:19:26;30.10;58.60
27667;DHT22;15074;50.940;5.282;2023-06-24T15:21:52;30.20;62.30
27667;DHT22;15074;50.940;5.282;2023-06-24T15:24:18;29.80;61.80
27667;DHT22;15074;50.940;5.282;2023-06-24T15:26:44;29.10;62.30
27667;DHT22;15074;50.940;5.282;2023-06-24T15:29:10;29.50;65.70
27667;DHT22;15074;50.940;5.282;2023-06-24T15:31:35;29.90;63.40
27667;DHT22;15074;50.940;5.282;2023-06-24T15:34:01;30.30;63.70
27667;DHT22;15074;50.940;5.282;2023-06-24T15:36:27;30.10;62.00
27667;DHT22;15074;50.940;5.282;2023-06-24T15:38:54;29.60;63.30
27667;DHT22;15074;50.940;5.282;2023-06-24T15:41:20;29.20;65.20
27667;DHT22;15074;50.940;5.282;2023-06-24T15:43:46;29.00;68.80
27667;DHT22;15074;50.940;5.282;2023-06-24T15:46:11;28.80;65.50
27667;DHT22;15074;50.940;5.282;2023-06-24T15:48:37;28.60;66.40
27667;DHT22;15074;50.940;5.282;2023-06-24T15:51:03;28.80;68.80
27667;DHT22;15074;50.940;5.282;2023-06-24T15:53:28;28.30;65.50
27667;DHT22;15074;50.940;5.282;2023-06-24T15:55:54;28.20;65.20